createdAt,value
2023-08-21T00:00:45.405Z,101070.63
2023-08-21T00:03:37.230Z,101065.87
2023-08-21T00:06:09.628Z,101061.89
2023-08-21T00:08:41.557Z,101069.06
2023-08-21T00:11:13.546Z,101071.11
2023-08-21T00:13:46.053Z,101053.86
2023-08-21T00:16:16.458Z,101054.22
2023-08-21T00:18:48.473Z,101060.16
2023-08-21T00:21:21.148Z,101067.96
2023-08-21T00:23:53.172Z,101073.45
2023-08-21T00:26:24.258Z,101076.63
2023-08-21T00:28:56.155Z,101067.73
2023-08-21T00:31:28.073Z,101063.14
2023-08-21T00:34:00.114Z,101062.45
2023-08-21T00:36:32.396Z,101060.49
2023-08-21T00:39:04.397Z,101060.48
2023-08-21T00:41:36.380Z,101059.13
2023-08-21T00:44:08.484Z,101063.27
2023-08-21T00:47:04.623Z,101063.80
2023-08-21T00:49:37.200Z,101073.23
2023-08-21T00:52:13.005Z,101072.10
2023-08-21T00:54:45.187Z,101069.83
2023-08-21T00:57:17.666Z,101072.80
2023-08-21T00:59:49.172Z,101074.95
2023-08-21T01:02:21.117Z,101085.52
2023-08-21T01:04:53.031Z,101077.77
2023-08-21T01:07:25.537Z,101077.40
2023-08-21T01:10:02.570Z,101075.67
2023-08-21T01:12:39.501Z,101069.21
2023-08-21T01:15:12.447Z,101073.15
2023-08-21T01:17:45.033Z,101071.85
2023-08-21T01:20:18.698Z,101068.38
2023-08-21T01:22:51.538Z,101054.52
2023-08-21T01:25:23.704Z,101054.70
2023-08-21T01:27:55.682Z,101053.94
2023-08-21T01:30:30.698Z,101059.16
2023-08-21T01:33:06.721Z,101057.19
2023-08-21T01:35:39.573Z,101064.96
2023-08-21T01:38:11.846Z,101064.93
2023-08-21T01:40:43.660Z,101056.98
2023-08-21T01:43:16.999Z,101057.75
2023-08-21T01:45:48.936Z,101056.84
2023-08-21T01:48:20.777Z,101060.13
2023-08-21T01:50:52.685Z,101059.05
2023-08-21T01:53:25.044Z,101057.70
2023-08-21T01:55:56.913Z,101049.62
2023-08-21T01:58:29.369Z,101046.07
2023-08-21T02:01:01.743Z,101048.75
2023-08-21T02:03:33.750Z,101052.94
2023-08-21T02:06:05.862Z,101061.21
2023-08-21T02:08:39.087Z,101054.95
2023-08-21T02:11:10.953Z,101054.38
2023-08-21T02:13:43.199Z,101051.70
2023-08-21T02:16:15.028Z,101051.40
2023-08-21T02:18:47.635Z,101056.60
2023-08-21T02:21:19.749Z,101069.15
2023-08-21T02:23:52.050Z,101073.04
2023-08-21T02:26:23.944Z,101078.83
2023-08-21T02:28:56.185Z,101082.73
2023-08-21T02:31:28.094Z,101087.98
2023-08-21T02:34:00.924Z,101086.53
2023-08-21T02:36:32.854Z,101092.98
2023-08-21T02:39:06.596Z,101095.04
2023-08-21T02:41:38.484Z,101096.37
2023-08-21T02:44:10.454Z,101099.62
2023-08-21T02:47:06.827Z,101093.87
2023-08-21T02:49:38.657Z,101095.15
2023-08-21T02:52:11.753Z,101096.28
2023-08-21T02:54:44.004Z,101092.77
2023-08-21T02:57:15.905Z,101091.42
2023-08-21T02:59:47.832Z,101084.38
2023-08-21T03:02:20.335Z,101081.41
2023-08-21T03:04:50.741Z,101076.61
2023-08-21T03:07:22.721Z,101080.03
2023-08-21T03:09:54.548Z,101077.16
2023-08-21T03:12:26.409Z,101076.36
2023-08-21T03:14:58.202Z,101072.21
2023-08-21T03:17:30.115Z,101077.09
2023-08-21T03:20:02.227Z,101073.83
2023-08-21T03:22:34.460Z,101076.33
2023-08-21T03:25:08.118Z,101078.34
2023-08-21T03:27:40.851Z,101077.78
2023-08-21T03:30:11.598Z,101076.23
2023-08-21T03:32:43.504Z,101079.61
2023-08-21T03:35:15.285Z,101081.92
2023-08-21T03:37:47.394Z,101080.58
2023-08-21T03:40:20.667Z,101087.09
2023-08-21T03:42:53.898Z,101088.80
2023-08-21T03:45:26.375Z,101089.75
2023-08-21T03:47:59.227Z,101092.29
2023-08-21T03:50:31.444Z,101094.11
2023-08-21T03:53:03.546Z,101088.50
2023-08-21T03:55:35.565Z,101093.19
2023-08-21T03:58:07.559Z,101098.15
2023-08-21T04:00:39.402Z,101094.58
2023-08-21T04:03:11.955Z,101095.80
2023-08-21T04:05:44.121Z,101096.33
2023-08-21T04:08:16.149Z,101093.15
2023-08-21T04:10:48.287Z,101092.15
2023-08-21T04:13:20.617Z,101084.55
2023-08-21T04:15:55.554Z,101089.92
2023-08-21T04:18:40.036Z,101089.19
2023-08-21T04:21:13.407Z,101086.37
2023-08-21T04:23:46.104Z,101087.26
2023-08-21T04:26:16.379Z,101094.48
2023-08-21T04:28:48.279Z,101091.50
2023-08-21T04:31:20.601Z,101092.86
2023-08-21T04:33:53.740Z,101090.07
2023-08-21T04:36:25.982Z,101090.95
2023-08-21T04:38:57.898Z,101087.14
2023-08-21T04:41:29.824Z,101091.89
2023-08-21T04:44:02.641Z,101096.57
2023-08-21T04:46:34.639Z,101099.77
2023-08-21T04:49:06.881Z,101106.52
2023-08-21T04:51:38.714Z,101108.52
2023-08-21T04:54:37.726Z,101103.41
2023-08-21T04:57:10.094Z,101105.79
2023-08-21T04:59:42.265Z,101103.46
2023-08-21T05:02:13.061Z,101101.57
2023-08-21T05:04:45.287Z,101098.92
2023-08-21T05:07:17.185Z,101102.23
2023-08-21T05:09:49.051Z,101105.10
2023-08-21T05:12:21.213Z,101108.05
2023-08-21T05:14:53.102Z,101111.86
2023-08-21T05:17:26.325Z,101121.39
2023-08-21T05:20:00.652Z,101122.42
2023-08-21T05:22:32.631Z,101132.73
2023-08-21T05:25:04.827Z,101137.63
2023-08-21T05:27:36.993Z,101142.91
2023-08-21T05:30:11.898Z,101147.42
2023-08-21T05:32:44.120Z,101145.14
2023-08-21T05:35:16.454Z,101146.42
2023-08-21T05:37:47.143Z,101142.63
2023-08-21T05:40:20.245Z,101139.50
2023-08-21T05:42:52.754Z,101136.44
2023-08-21T05:45:24.840Z,101137.08
2023-08-21T05:47:57.339Z,101136.84
2023-08-21T05:50:27.905Z,101141.73
2023-08-21T05:53:02.760Z,101145.76
2023-08-21T05:55:34.794Z,101146.85
2023-08-21T05:58:07.238Z,101153.97
2023-08-21T06:00:41.113Z,101152.67
2023-08-21T06:03:13.678Z,101149.02
2023-08-21T06:06:07.012Z,101145.73
2023-08-21T06:08:39.193Z,101150.60
2023-08-21T06:11:12.117Z,101152.73
2023-08-21T06:13:42.643Z,101147.81
2023-08-21T06:16:17.358Z,101146.08
2023-08-21T06:18:49.666Z,101145.80
2023-08-21T06:21:21.741Z,101147.44
2023-08-21T06:23:53.793Z,101149.05
2023-08-21T06:26:26.619Z,101151.98
2023-08-21T06:28:58.910Z,101151.36
2023-08-21T06:31:31.238Z,101149.48
2023-08-21T06:34:03.351Z,101147.12
2023-08-21T06:36:35.431Z,101144.44
2023-08-21T06:39:08.980Z,101145.52
2023-08-21T06:44:44.308Z,101147.61
2023-08-21T06:47:16.351Z,101150.13
2023-08-21T06:49:48.439Z,101151.42
2023-08-21T06:52:20.721Z,101144.80
2023-08-21T06:54:53.187Z,101147.73
2023-08-21T06:57:25.316Z,101144.79
2023-08-21T06:59:57.376Z,101139.11
2023-08-21T07:02:29.311Z,101133.45
2023-08-21T07:05:01.240Z,101132.04
2023-08-21T07:07:33.351Z,101127.61
2023-08-21T07:10:06.183Z,101126.77
2023-08-21T07:12:38.767Z,101131.73
2023-08-21T07:15:12.843Z,101135.38
2023-08-21T07:17:45.192Z,101142.95
2023-08-21T07:20:15.929Z,101140.54
2023-08-21T07:22:48.233Z,101149.23
2023-08-21T07:25:21.084Z,101149.89
2023-08-21T07:27:55.240Z,101151.05
2023-08-21T07:30:27.936Z,101151.91
2023-08-21T07:33:00.325Z,101154.89
2023-08-21T07:35:32.341Z,101154.55
2023-08-21T07:38:04.468Z,101160.16
2023-08-21T07:40:36.381Z,101164.64
2023-08-21T07:43:08.649Z,101163.75
2023-08-21T07:45:42.165Z,101163.24
2023-08-21T07:48:15.138Z,101166.64
2023-08-21T07:50:55.133Z,101162.89
2023-08-21T07:53:28.096Z,101163.53
2023-08-21T07:56:00.463Z,101165.95
2023-08-21T07:58:32.711Z,101157.83
2023-08-21T08:01:05.825Z,101152.02
2023-08-21T08:03:38.784Z,101157.98
2023-08-21T08:06:10.927Z,101159.62
2023-08-21T08:08:43.031Z,101161.50
2023-08-21T08:11:15.146Z,101167.68
2023-08-21T08:13:47.001Z,101169.56
2023-08-21T08:16:19.114Z,101171.88
2023-08-21T08:18:51.227Z,101168.94
2023-08-21T08:21:23.677Z,101171.23
2023-08-21T08:23:54.164Z,101170.96
2023-08-21T08:26:26.075Z,101170.07
2023-08-21T08:28:57.959Z,101162.80
2023-08-21T08:31:30.005Z,101156.16
2023-08-21T08:34:02.257Z,101151.94
2023-08-21T08:36:34.186Z,101151.90
2023-08-21T08:42:08.309Z,101157.95
2023-08-21T08:44:42.177Z,101164.06
2023-08-21T08:47:15.612Z,101170.98
2023-08-21T08:49:48.806Z,101174.27
2023-08-21T08:52:21.383Z,101169.88
2023-08-21T08:54:53.250Z,101174.30
2023-08-21T08:57:25.203Z,101171.91
2023-08-21T08:59:57.269Z,101168.04
2023-08-21T09:02:30.271Z,101165.75
2023-08-21T09:05:02.773Z,101165.73
2023-08-21T09:07:33.221Z,101162.60
2023-08-21T09:10:05.420Z,101155.83
2023-08-21T09:12:37.612Z,101152.85
2023-08-21T09:15:12.533Z,101152.01
2023-08-21T09:17:44.534Z,101146.70
2023-08-21T09:20:19.176Z,101144.83
2023-08-21T09:22:57.255Z,101144.29
2023-08-21T09:25:29.662Z,101144.54
2023-08-21T09:28:00.161Z,101149.81
2023-08-21T09:30:32.192Z,101148.36
2023-08-21T09:33:06.266Z,101151.41
2023-08-21T09:35:38.364Z,101144.06
2023-08-21T09:38:11.456Z,101147.08
2023-08-21T09:40:52.750Z,101147.91
2023-08-21T09:43:25.984Z,101142.23
2023-08-21T09:45:58.862Z,101139.86
2023-08-21T09:48:32.394Z,101141.46
2023-08-21T09:51:05.899Z,101141.16
2023-08-21T09:53:38.318Z,101137.05
2023-08-21T09:56:09.453Z,101135.52
2023-08-21T09:58:42.052Z,101135.38
2023-08-21T10:01:15.072Z,101130.83
2023-08-21T10:03:49.156Z,101133.77
2023-08-21T10:06:23.685Z,101135.64
2023-08-21T10:08:58.710Z,101132.67
2023-08-21T10:11:31.656Z,101128.76
2023-08-21T10:14:04.540Z,101126.73
2023-08-21T10:17:01.655Z,101117.55
2023-08-21T10:19:36.809Z,101120.92
2023-08-21T10:22:08.962Z,101118.58
2023-08-21T10:24:41.046Z,101115.10
2023-08-21T10:27:14.812Z,101118.27
2023-08-21T10:29:58.831Z,101119.24
2023-08-21T10:32:30.893Z,101120.05
2023-08-21T10:35:04.976Z,101120.16
2023-08-21T10:37:37.174Z,101118.90
2023-08-21T10:40:25.906Z,101115.10
2023-08-21T10:42:59.280Z,101117.64
2023-08-21T10:45:32.247Z,101118.66
2023-08-21T10:48:04.437Z,101118.39
2023-08-21T10:50:36.457Z,101118.25
2023-08-21T10:53:08.539Z,101118.55
2023-08-21T10:55:40.913Z,101107.85
2023-08-21T10:58:16.691Z,101109.13
2023-08-21T11:00:49.031Z,101108.67
2023-08-21T11:03:22.598Z,101110.11
2023-08-21T11:06:05.981Z,101108.45
2023-08-21T11:08:38.643Z,101104.23
2023-08-21T11:11:12.374Z,101105.83
2023-08-21T11:13:53.929Z,101102.75
2023-08-21T11:16:27.035Z,101097.83
2023-08-21T11:18:59.168Z,101101.41
2023-08-21T11:21:31.224Z,101097.80
2023-08-21T11:24:03.273Z,101097.23
2023-08-21T11:26:35.480Z,101099.49
2023-08-21T11:29:31.927Z,101095.76
2023-08-21T11:32:04.567Z,101094.38
2023-08-21T11:34:37.537Z,101091.45
2023-08-21T11:37:09.797Z,101088.83
2023-08-21T11:39:50.100Z,101095.79
2023-08-21T11:42:24.565Z,101093.14
2023-08-21T11:44:56.822Z,101092.70
2023-08-21T11:47:32.220Z,101089.02
2023-08-21T11:50:08.591Z,101084.70
2023-08-21T11:52:41.060Z,101087.61
2023-08-21T11:55:13.815Z,101089.88
2023-08-21T11:57:53.014Z,101089.34
2023-08-21T12:00:31.456Z,101086.63
2023-08-21T12:03:08.030Z,101082.84
2023-08-21T12:05:46.326Z,101085.20
2023-08-21T12:08:18.362Z,101086.45
2023-08-21T12:10:54.063Z,101093.50
2023-08-21T12:13:27.687Z,101091.01
2023-08-21T12:16:01.595Z,101088.15
2023-08-21T12:18:33.777Z,101078.92
2023-08-21T12:21:05.668Z,101084.67
2023-08-21T12:23:37.703Z,101084.83
2023-08-21T12:26:09.759Z,101085.73
2023-08-21T12:28:41.742Z,101087.48
2023-08-21T12:31:13.691Z,101083.92
2023-08-21T12:33:45.562Z,101080.34
2023-08-21T12:36:17.623Z,101080.31
2023-08-21T12:38:49.646Z,101076.02
2023-08-21T12:41:21.996Z,101078.71
2023-08-21T12:43:52.367Z,101077.29
2023-08-21T12:46:25.364Z,101072.60
2023-08-21T12:48:57.640Z,101075.20
2023-08-21T12:51:32.280Z,101076.60
2023-08-21T12:54:04.613Z,101073.41
2023-08-21T12:57:04.282Z,101073.65
2023-08-21T12:59:48.408Z,101070.91
2023-08-21T13:02:25.478Z,101073.95
2023-08-21T13:04:57.356Z,101078.21
2023-08-21T13:07:29.298Z,101071.31
2023-08-21T13:10:01.510Z,101073.23
2023-08-21T13:12:33.519Z,101068.34
2023-08-21T13:15:08.351Z,101074.19
2023-08-21T13:17:40.377Z,101065.33
2023-08-21T13:20:13.588Z,101066.52
2023-08-21T13:22:50.370Z,101062.34
2023-08-21T13:25:25.383Z,101066.30
2023-08-21T13:27:57.877Z,101062.17
2023-08-21T13:30:30.005Z,101060.73
2023-08-21T13:33:02.121Z,101060.91
2023-08-21T13:35:34.138Z,101061.42
2023-08-21T13:38:07.045Z,101055.11
2023-08-21T13:40:39.119Z,101053.72
2023-08-21T13:43:13.407Z,101052.92
2023-08-21T13:45:46.869Z,101053.95
2023-08-21T13:48:20.042Z,101050.02
2023-08-21T13:50:52.252Z,101047.92
2023-08-21T13:53:24.208Z,101051.56
2023-08-21T13:55:56.701Z,101046.48
2023-08-21T13:58:29.167Z,101044.46
2023-08-21T14:00:59.699Z,101042.95
2023-08-21T14:03:32.063Z,101041.37
2023-08-21T14:06:04.033Z,101039.29
2023-08-21T14:08:36.035Z,101037.37
2023-08-21T14:11:08.060Z,101039.53
2023-08-21T14:13:40.259Z,101038.33
2023-08-21T14:16:12.461Z,101038.85
2023-08-21T14:18:44.402Z,101035.14
2023-08-21T14:21:18.623Z,101033.58
2023-08-21T14:23:50.481Z,101029.84
2023-08-21T14:26:22.421Z,101030.52
2023-08-21T14:28:54.487Z,101031.14
2023-08-21T14:31:28.196Z,101028.30
2023-08-21T14:34:00.246Z,101024.54
2023-08-21T14:36:32.125Z,101026.26
2023-08-21T14:39:04.960Z,101024.59
2023-08-21T14:41:38.074Z,101027.90
2023-08-21T14:44:10.568Z,101029.22
2023-08-21T14:46:43.668Z,101023.20
2023-08-21T14:49:15.677Z,101024.66
2023-08-21T14:51:47.626Z,101025.96
2023-08-21T14:57:19.848Z,101023.47
2023-08-21T14:59:51.684Z,101024.72
2023-08-21T15:02:23.864Z,101016.92
2023-08-21T15:04:55.894Z,101015.70
2023-08-21T15:07:29.272Z,101010.77
2023-08-21T15:10:01.442Z,101003.14
2023-08-21T15:12:33.393Z,101005.27
2023-08-21T15:15:06.423Z,101007.79
2023-08-21T15:17:38.652Z,101008.73
2023-08-21T15:20:15.248Z,101007.26
2023-08-21T15:22:48.477Z,101006.25
2023-08-21T15:25:21.598Z,101003.45
2023-08-21T15:27:55.116Z,101000.40
2023-08-21T15:30:27.092Z,100999.14
2023-08-21T15:32:59.184Z,100998.52
2023-08-21T15:35:32.154Z,100994.29
2023-08-21T15:38:06.217Z,100989.34
2023-08-21T15:40:38.043Z,100987.30
2023-08-21T15:43:11.112Z,100982.42
2023-08-21T15:45:43.106Z,100984.45
2023-08-21T15:48:13.927Z,100981.36
2023-08-21T15:50:46.304Z,100979.99
2023-08-21T15:53:18.315Z,100982.36
2023-08-21T15:55:50.649Z,100987.48
2023-08-21T15:58:21.115Z,100987.36
2023-08-21T16:00:53.323Z,100988.98
2023-08-21T16:03:25.628Z,100988.11
2023-08-21T16:05:58.092Z,100989.79
2023-08-21T16:08:30.140Z,100990.54
2023-08-21T16:11:02.643Z,100988.52
2023-08-21T16:13:34.833Z,100986.28
2023-08-21T16:16:05.484Z,100989.13
2023-08-21T16:18:38.740Z,100985.73
2023-08-21T16:21:11.071Z,100980.09
2023-08-21T16:23:41.598Z,100982.63
2023-08-21T16:26:14.095Z,100985.01
2023-08-21T16:28:44.935Z,100987.83
2023-08-21T16:31:18.995Z,100991.33
2023-08-21T16:33:51.133Z,100985.16
2023-08-21T16:36:23.206Z,100983.80
2023-08-21T16:38:55.870Z,100988.35
2023-08-21T16:41:27.760Z,100983.16
2023-08-21T16:43:59.992Z,100981.69
2023-08-21T16:46:30.388Z,100977.40
2023-08-21T16:49:04.351Z,100977.77
2023-08-21T16:51:36.465Z,100974.33
2023-08-21T16:54:08.568Z,100973.06
2023-08-21T16:56:40.657Z,100973.82
2023-08-21T16:59:12.947Z,100976.81
2023-08-21T17:01:43.625Z,100974.99
2023-08-21T17:04:15.591Z,100973.58
2023-08-21T17:06:47.701Z,100972.94
2023-08-21T17:12:19.026Z,100969.87
2023-08-21T17:14:50.963Z,100974.70
2023-08-21T17:17:23.824Z,100974.90
2023-08-21T17:19:55.790Z,100971.95
2023-08-21T17:22:27.939Z,100972.70
2023-08-21T17:25:13.553Z,100970.91
2023-08-21T17:27:46.991Z,100969.16
2023-08-21T17:30:17.446Z,100969.23
2023-08-21T17:32:49.805Z,100967.77
2023-08-21T17:35:21.864Z,100974.90
2023-08-21T17:37:53.793Z,100976.78
2023-08-21T17:40:25.883Z,100977.73
2023-08-21T17:42:57.951Z,100980.64
2023-08-21T17:45:30.121Z,100979.66
2023-08-21T17:48:02.236Z,100976.52
2023-08-21T17:50:35.007Z,100972.52
2023-08-21T17:53:07.066Z,100973.83
2023-08-21T17:55:39.200Z,100975.84
2023-08-21T17:58:11.657Z,100972.33
2023-08-21T18:00:44.161Z,100977.17
2023-08-21T18:03:14.787Z,100979.58
2023-08-21T18:05:47.123Z,100981.63
2023-08-21T18:08:19.740Z,100985.23
2023-08-21T18:10:52.463Z,100988.78
2023-08-21T18:13:24.647Z,100986.33
2023-08-21T18:15:56.610Z,100986.79
2023-08-21T18:18:31.196Z,100991.85
2023-08-21T18:21:03.716Z,100996.39
2023-08-21T18:23:35.729Z,100990.81
2023-08-21T18:26:07.913Z,100997.34
2023-08-21T18:28:40.242Z,101004.86
2023-08-21T18:31:12.632Z,101001.49
2023-08-21T18:33:44.880Z,101003.73
2023-08-21T18:36:17.062Z,101006.36
2023-08-21T18:38:49.101Z,101006.52
2023-08-21T18:41:21.273Z,101006.60
2023-08-21T18:43:53.222Z,101008.48
2023-08-21T18:46:25.304Z,101010.73
2023-08-21T18:48:57.216Z,101011.46
2023-08-21T18:51:29.214Z,101012.06
2023-08-21T18:54:01.504Z,101015.98
2023-08-21T18:56:35.093Z,101014.59
2023-08-21T18:59:07.552Z,101014.88
2023-08-21T19:01:39.725Z,101017.41
2023-08-21T19:04:11.964Z,101017.37
2023-08-21T19:06:59.925Z,101015.98
2023-08-21T19:09:59.878Z,101016.75
2023-08-21T19:12:32.203Z,101010.55
2023-08-21T19:15:05.256Z,101015.13
2023-08-21T19:17:37.725Z,101015.54
2023-08-21T19:20:11.803Z,101010.23
2023-08-21T19:22:43.893Z,101008.73
2023-08-21T19:25:16.139Z,101013.80
2023-08-21T19:27:48.203Z,101012.48
2023-08-21T19:30:21.253Z,101010.72
2023-08-21T19:32:53.301Z,101007.27
2023-08-21T19:35:25.474Z,101002.08
2023-08-21T19:37:57.640Z,101003.98
2023-08-21T19:40:29.902Z,101005.08
2023-08-21T19:43:02.054Z,101010.78
2023-08-21T19:45:34.178Z,101008.16
2023-08-21T19:48:06.666Z,101011.09
2023-08-21T19:50:38.993Z,101010.31
2023-08-21T19:53:11.351Z,101012.33
2023-08-21T19:55:42.053Z,101011.52
2023-08-21T19:58:14.325Z,101013.41
2023-08-21T20:00:46.385Z,101014.02
2023-08-21T20:03:21.288Z,101019.31
2023-08-21T20:06:01.183Z,101021.23
2023-08-21T20:08:33.844Z,101026.44
2023-08-21T20:11:07.262Z,101026.29
2023-08-21T20:13:39.277Z,101022.84
2023-08-21T20:16:11.285Z,101027.86
2023-08-21T20:18:43.828Z,101035.13
2023-08-21T20:21:19.430Z,101039.25
2023-08-21T20:23:51.869Z,101036.45
2023-08-21T20:26:25.365Z,101035.94
2023-08-21T20:28:58.811Z,101037.52
2023-08-21T20:31:31.217Z,101035.10
2023-08-21T20:34:03.518Z,101036.10
2023-08-21T20:36:35.635Z,101036.50
2023-08-21T20:39:07.608Z,101037.31
2023-08-21T20:41:39.778Z,101037.64
2023-08-21T20:44:12.234Z,101041.01
2023-08-21T20:46:44.423Z,101040.14
2023-08-21T20:49:16.493Z,101039.16
2023-08-21T20:51:49.081Z,101042.53
2023-08-21T20:57:21.365Z,101047.38
2023-08-21T20:59:55.081Z,101048.06
2023-08-21T21:02:29.307Z,101054.44
2023-08-21T21:05:02.972Z,101054.41
2023-08-21T21:07:35.802Z,101054.91
2023-08-21T21:10:13.079Z,101052.91
2023-08-21T21:12:47.614Z,101054.34
2023-08-21T21:15:20.076Z,101055.19
2023-08-21T21:17:52.633Z,101052.41
2023-08-21T21:20:24.767Z,101052.06
2023-08-21T21:22:57.192Z,101052.41
2023-08-21T21:25:29.510Z,101061.04
2023-08-21T21:28:01.527Z,101061.80
2023-08-21T21:30:33.769Z,101064.70
2023-08-21T21:33:04.903Z,101066.41
2023-08-21T21:35:36.961Z,101072.02
2023-08-21T21:38:08.936Z,101074.55
2023-08-21T21:40:44.376Z,101077.73
2023-08-21T21:43:16.529Z,101078.74
2023-08-21T21:45:48.582Z,101072.95
2023-08-21T21:48:20.664Z,101078.92
2023-08-21T21:50:53.879Z,101080.82
2023-08-21T21:53:29.999Z,101084.86
2023-08-21T21:56:04.751Z,101081.19
2023-08-21T21:58:37.125Z,101080.48
2023-08-21T22:01:07.961Z,101079.61
2023-08-21T22:03:40.368Z,101082.08
2023-08-21T22:06:13.422Z,101086.17
2023-08-21T22:08:45.394Z,101082.92
2023-08-21T22:11:18.590Z,101082.54
2023-08-21T22:13:51.338Z,101078.39
2023-08-21T22:16:23.366Z,101074.36
2023-08-21T22:18:55.763Z,101073.92
2023-08-21T22:21:27.996Z,101066.84
2023-08-21T22:24:00.816Z,101070.30
2023-08-21T22:26:32.846Z,101072.30
2023-08-21T22:29:04.941Z,101073.25
2023-08-21T22:31:42.231Z,101073.96
2023-08-21T22:34:15.076Z,101073.31
2023-08-21T22:36:45.935Z,101075.63
2023-08-21T22:39:17.941Z,101077.15
2023-08-21T22:41:50.094Z,101079.20
2023-08-21T22:44:46.299Z,101071.79
2023-08-21T22:47:20.296Z,101073.02
2023-08-21T22:49:52.939Z,101068.80
2023-08-21T22:52:23.261Z,101068.88
2023-08-21T22:54:55.506Z,101066.41
2023-08-21T22:57:27.619Z,101068.55
2023-08-21T22:59:59.762Z,101062.71
2023-08-21T23:02:31.707Z,101072.07
2023-08-21T23:05:04.802Z,101077.38
2023-08-21T23:07:37.917Z,101078.04
2023-08-21T23:10:11.702Z,101082.96
2023-08-21T23:12:43.667Z,101084.57
2023-08-21T23:15:18.794Z,101081.92
2023-08-21T23:17:52.409Z,101076.63
2023-08-21T23:20:26.256Z,101068.58
2023-08-21T23:23:02.190Z,101067.56
2023-08-21T23:25:34.489Z,101059.30
2023-08-21T23:28:07.372Z,101060.44
2023-08-21T23:30:41.419Z,101061.82
2023-08-21T23:33:13.594Z,101060.64
2023-08-21T23:35:46.491Z,101062.94
2023-08-21T23:38:19.077Z,101063.98
2023-08-21T23:40:51.524Z,101058.55
2023-08-21T23:43:23.561Z,101059.63
2023-08-21T23:45:55.525Z,101058.94
2023-08-21T23:48:27.495Z,101060.80
2023-08-21T23:50:59.854Z,101061.34
2023-08-21T23:53:31.958Z,101058.58
2023-08-21T23:56:05.653Z,101058.73
2023-08-21T23:58:37.912Z,101060.44
